createdAt,value
2023-04-28T00:00:54.033Z,9.36
2023-04-28T00:04:56.174Z,9.35
2023-04-28T00:08:58.246Z,9.47
2023-04-28T00:13:01.123Z,9.51
2023-04-28T00:17:03.327Z,9.54
2023-04-28T00:21:05.507Z,9.58
2023-04-28T00:25:08.490Z,9.70
2023-04-28T00:29:10.650Z,9.75
2023-04-28T00:33:13.633Z,9.70
2023-04-28T00:37:15.747Z,9.70
2023-04-28T00:41:17.774Z,9.52
2023-04-28T00:45:20.422Z,9.36
2023-04-28T00:49:22.455Z,9.32
2023-04-28T00:53:24.624Z,9.22
2023-04-28T00:57:27.088Z,9.26
2023-04-28T01:01:29.302Z,9.29
2023-04-28T01:05:31.773Z,9.32
2023-04-28T01:09:34.027Z,9.34
2023-04-28T01:13:36.333Z,9.36
2023-04-28T01:17:38.416Z,9.40
2023-04-28T01:21:40.451Z,9.44
2023-04-28T01:25:54.229Z,9.40
2023-04-28T01:29:58.298Z,9.38
2023-04-28T01:34:00.736Z,9.38
2023-04-28T01:38:02.785Z,9.35
2023-04-28T01:42:05.054Z,9.24
2023-04-28T01:46:08.146Z,9.13
2023-04-28T01:50:10.563Z,9.14
2023-04-28T01:54:12.551Z,9.18
2023-04-28T01:58:15.266Z,9.14
2023-04-28T02:02:17.370Z,9.20
2023-04-28T02:06:19.892Z,9.30
2023-04-28T02:10:21.908Z,9.41
2023-04-28T02:14:24.424Z,9.47
2023-04-28T02:18:26.632Z,9.56
2023-04-28T02:22:28.669Z,9.62
2023-04-28T02:26:30.682Z,9.58
2023-04-28T02:30:32.686Z,9.58
2023-04-28T02:34:34.746Z,9.60
2023-04-28T02:38:37.139Z,9.52
2023-04-28T02:42:40.866Z,9.53
2023-04-28T02:46:42.893Z,9.54
2023-04-28T02:50:46.262Z,9.55
2023-04-28T02:54:49.246Z,9.55
2023-04-28T02:58:52.767Z,9.55
2023-04-28T03:02:55.316Z,9.58
2023-04-28T03:06:57.451Z,9.60
2023-04-28T03:10:59.518Z,9.63
2023-04-28T03:15:03.341Z,9.65
2023-04-28T03:19:05.454Z,9.68
2023-04-28T03:23:07.495Z,9.69
2023-04-28T03:27:10.360Z,9.70
2023-04-28T03:31:12.469Z,9.71
2023-04-28T03:35:14.715Z,9.69
2023-04-28T03:39:17.480Z,9.66
2023-04-28T03:43:19.629Z,9.62
2023-04-28T03:47:40.166Z,9.58
2023-04-28T03:51:42.313Z,9.53
2023-04-28T03:55:44.971Z,9.51
2023-04-28T03:59:47.579Z,9.53
2023-04-28T04:03:49.747Z,9.56
2023-04-28T04:07:53.284Z,9.55
2023-04-28T04:11:55.306Z,9.55
2023-04-28T04:15:58.273Z,9.58
2023-04-28T04:20:00.449Z,9.63
2023-04-28T04:24:02.497Z,9.56
2023-04-28T04:28:05.041Z,9.45
2023-04-28T04:32:07.333Z,9.49
2023-04-28T04:36:10.143Z,9.62
2023-04-28T04:40:12.416Z,9.60
2023-04-28T04:44:21.674Z,9.60
2023-04-28T04:48:25.935Z,9.66
2023-04-28T04:52:28.104Z,9.66
2023-04-28T04:56:30.810Z,9.64
2023-04-28T05:00:33.710Z,9.63
2023-04-28T05:04:36.568Z,9.65
2023-04-28T05:08:39.249Z,9.55
2023-04-28T05:12:41.545Z,9.50
2023-04-28T05:16:43.829Z,9.57
2023-04-28T05:20:50.927Z,9.57
2023-04-28T05:24:54.202Z,9.52
2023-04-28T05:28:56.350Z,9.49
2023-04-28T05:32:58.387Z,9.25
2023-04-28T05:37:00.820Z,9.06
2023-04-28T05:41:04.842Z,8.91
2023-04-28T05:45:07.418Z,8.76
2023-04-28T05:49:10.110Z,8.70
2023-04-28T05:53:13.039Z,8.57
2023-04-28T05:57:15.647Z,8.58
2023-04-28T06:01:18.370Z,8.60
2023-04-28T06:05:21.993Z,8.75
2023-04-28T06:09:26.205Z,8.92
2023-04-28T06:13:28.754Z,9.06
2023-04-28T06:17:32.697Z,8.92
2023-04-28T06:21:34.795Z,8.53
2023-04-28T06:25:38.355Z,8.33
2023-04-28T06:29:40.403Z,8.39
2023-04-28T06:33:42.408Z,8.64
2023-04-28T06:37:44.537Z,8.82
2023-04-28T06:41:47.164Z,8.95
2023-04-28T06:45:49.525Z,9.08
2023-04-28T06:49:52.286Z,9.17
2023-04-28T06:53:54.378Z,9.17
2023-04-28T06:57:56.410Z,9.18
2023-04-28T07:01:58.429Z,9.28
2023-04-28T07:06:00.623Z,9.28
2023-04-28T07:10:02.724Z,9.36
2023-04-28T07:14:04.786Z,9.36
2023-04-28T07:18:07.488Z,9.05
2023-04-28T07:22:09.632Z,8.95
2023-04-28T07:26:13.655Z,9.09
2023-04-28T07:30:29.395Z,9.23
2023-04-28T07:34:31.508Z,9.48
2023-04-28T07:38:37.279Z,9.60
2023-04-28T07:42:39.282Z,9.85
2023-04-28T07:46:41.403Z,10.10
2023-04-28T07:50:43.506Z,10.29
2023-04-28T07:54:45.541Z,10.19
2023-04-28T07:58:47.819Z,10.26
2023-04-28T08:02:49.955Z,10.14
2023-04-28T08:06:52.855Z,10.05
2023-04-28T08:10:55.024Z,9.95
2023-04-28T08:14:57.325Z,10.06
2023-04-28T08:19:00.404Z,10.16
2023-04-28T08:23:02.588Z,10.29
2023-04-28T08:27:04.968Z,10.36
2023-04-28T08:31:07.237Z,10.44
2023-04-28T08:35:10.031Z,10.44
2023-04-28T08:39:13.544Z,10.52
2023-04-28T08:43:16.311Z,10.58
2023-04-28T08:47:21.226Z,10.71
2023-04-28T08:51:40.888Z,10.74
2023-04-28T08:55:44.868Z,10.87
2023-04-28T08:59:47.571Z,10.99
2023-04-28T09:03:50.089Z,11.15
2023-04-28T09:07:52.333Z,11.41
2023-04-28T09:11:55.977Z,11.67
2023-04-28T09:16:02.861Z,11.86
2023-04-28T09:20:20.264Z,12.03
2023-04-28T09:24:42.825Z,12.14
2023-04-28T09:28:44.959Z,12.32
2023-04-28T09:33:04.314Z,12.54
2023-04-28T09:37:19.804Z,12.79
2023-04-28T09:41:22.873Z,12.96
2023-04-28T09:45:25.827Z,13.48
2023-04-28T09:49:27.874Z,13.76
2023-04-28T09:53:30.682Z,14.01
2023-04-28T09:57:35.500Z,14.33
2023-04-28T10:01:40.542Z,14.78
2023-04-28T10:05:43.074Z,15.08
2023-04-28T10:09:47.953Z,15.21
2023-04-28T10:13:50.075Z,15.48
2023-04-28T10:17:53.461Z,15.78
2023-04-28T10:22:19.627Z,16.21
2023-04-28T10:26:25.329Z,16.45
2023-04-28T10:30:29.519Z,16.52
2023-04-28T10:34:32.082Z,16.88
2023-04-28T10:38:35.068Z,16.95
2023-04-28T10:42:54.662Z,16.69
2023-04-28T10:47:04.831Z,16.18
2023-04-28T10:51:07.433Z,15.88
2023-04-28T10:55:36.798Z,15.70
2023-04-28T10:59:38.916Z,15.68
2023-04-28T11:03:51.506Z,15.88
2023-04-28T11:08:26.666Z,16.35
2023-04-28T11:12:28.713Z,16.80
2023-04-28T11:16:32.814Z,16.96
2023-04-28T11:20:36.100Z,17.02
2023-04-28T11:24:38.199Z,17.02
2023-04-28T11:28:51.379Z,17.04
2023-04-28T11:32:53.746Z,16.71
2023-04-28T11:36:56.137Z,16.59
2023-04-28T11:40:59.216Z,16.44
2023-04-28T11:45:01.364Z,16.42
2023-04-28T11:49:05.682Z,16.72
2023-04-28T11:53:07.794Z,16.90
2023-04-28T11:57:21.201Z,16.60
2023-04-28T12:01:23.256Z,16.65
2023-04-28T12:05:25.568Z,16.86
2023-04-28T12:09:27.800Z,17.08
2023-04-28T12:13:30.048Z,17.37
2023-04-28T12:17:39.495Z,17.64
2023-04-28T12:21:42.636Z,17.68
2023-04-28T12:25:47.193Z,17.63
2023-04-28T12:29:49.303Z,17.70
2023-04-28T12:33:51.341Z,17.65
2023-04-28T12:37:55.260Z,17.46
2023-04-28T12:41:59.316Z,17.41
2023-04-28T12:46:01.494Z,17.52
2023-04-28T12:50:03.965Z,17.59
2023-04-28T12:54:06.870Z,17.32
2023-04-28T12:58:08.957Z,17.27
2023-04-28T13:02:11.098Z,17.44
2023-04-28T13:06:13.185Z,17.26
2023-04-28T13:10:15.260Z,17.01
2023-04-28T13:14:17.299Z,17.04
2023-04-28T13:18:19.338Z,17.38
2023-04-28T13:22:24.454Z,17.47
2023-04-28T13:26:26.787Z,17.41
2023-04-28T13:30:28.804Z,17.62
2023-04-28T13:34:31.510Z,18.18
2023-04-28T13:38:33.644Z,18.26
2023-04-28T13:42:35.704Z,18.25
2023-04-28T13:46:37.726Z,18.00
2023-04-28T13:50:39.838Z,17.62
2023-04-28T13:54:41.876Z,17.38
2023-04-28T13:58:43.916Z,17.27
2023-04-28T14:02:46.545Z,16.97
2023-04-28T14:06:50.397Z,16.51
2023-04-28T14:10:52.417Z,16.12
2023-04-28T14:14:54.418Z,15.90
2023-04-28T14:18:56.485Z,15.73
2023-04-28T14:22:59.362Z,15.55
2023-04-28T14:27:01.432Z,15.44
2023-04-28T14:31:07.009Z,15.30
2023-04-28T14:35:11.164Z,15.14
2023-04-28T14:39:13.210Z,15.18
2023-04-28T14:43:15.230Z,15.51
2023-04-28T14:47:17.280Z,16.23
2023-04-28T14:51:19.363Z,16.69
2023-04-28T14:55:21.492Z,16.87
2023-04-28T14:59:23.541Z,16.78
2023-04-28T15:03:25.757Z,16.59
2023-04-28T15:07:31.304Z,16.39
2023-04-28T15:11:33.489Z,16.29
2023-04-28T15:15:35.940Z,16.06
2023-04-28T15:19:38.004Z,15.97
2023-04-28T15:23:40.535Z,15.97
2023-04-28T15:27:42.791Z,16.01
2023-04-28T15:31:45.285Z,15.77
2023-04-28T15:35:47.464Z,15.64
2023-04-28T15:39:49.604Z,15.62
2023-04-28T15:43:52.011Z,15.56
2023-04-28T15:47:55.056Z,15.54
2023-04-28T15:51:57.213Z,15.50
2023-04-28T15:55:59.553Z,15.43
2023-04-28T16:00:01.598Z,15.34
2023-04-28T16:04:09.848Z,15.29
2023-04-28T16:08:12.446Z,15.29
2023-04-28T16:12:14.559Z,15.30
2023-04-28T16:16:16.742Z,15.23
2023-04-28T16:20:19.487Z,15.15
2023-04-28T16:24:22.457Z,15.12
2023-04-28T16:28:24.859Z,15.17
2023-04-28T16:32:27.712Z,15.41
2023-04-28T16:36:33.028Z,15.64
2023-04-28T16:40:35.097Z,15.86
2023-04-28T16:44:37.094Z,15.91
2023-04-28T16:48:39.118Z,15.72
2023-04-28T16:52:41.638Z,15.65
2023-04-28T16:56:43.650Z,15.61
2023-04-28T17:00:45.678Z,15.56
2023-04-28T17:04:47.820Z,15.56
2023-04-28T17:08:49.857Z,15.57
2023-04-28T17:12:52.477Z,15.55
2023-04-28T17:16:54.852Z,15.56
2023-04-28T17:20:57.441Z,15.43
2023-04-28T17:24:59.581Z,15.29
2023-04-28T17:29:02.403Z,15.24
2023-04-28T17:33:05.117Z,15.19
2023-04-28T17:37:07.217Z,15.10
2023-04-28T17:41:09.245Z,15.00
2023-04-28T17:45:11.733Z,14.95
2023-04-28T17:49:13.765Z,14.85
2023-04-28T17:53:16.269Z,14.75
2023-04-28T17:57:18.735Z,14.65
2023-04-28T18:01:21.135Z,14.51
2023-04-28T18:05:24.294Z,14.43
2023-04-28T18:09:27.109Z,14.37
2023-04-28T18:13:29.367Z,14.23
2023-04-28T18:17:33.235Z,14.15
2023-04-28T18:21:35.320Z,13.97
2023-04-28T18:25:37.716Z,13.84
2023-04-28T18:29:40.242Z,13.64
2023-04-28T18:33:42.421Z,13.46
2023-04-28T18:37:45.411Z,13.41
2023-04-28T18:41:47.519Z,13.37
2023-04-28T18:45:49.852Z,13.30
2023-04-28T18:49:52.166Z,13.14
2023-04-28T18:53:54.308Z,13.04
2023-04-28T18:57:56.428Z,12.94
2023-04-28T19:01:58.506Z,12.78
2023-04-28T19:06:01.764Z,12.73
2023-04-28T19:10:05.100Z,12.77
2023-04-28T19:14:07.393Z,12.63
2023-04-28T19:18:09.554Z,12.57
2023-04-28T19:22:31.499Z,12.48
2023-04-28T19:26:33.601Z,12.47
2023-04-28T19:30:35.898Z,12.53
2023-04-28T19:34:37.927Z,12.62
2023-04-28T19:38:40.298Z,12.64
2023-04-28T19:42:42.440Z,12.76
2023-04-28T19:46:46.144Z,12.90
2023-04-28T19:50:48.391Z,13.02
2023-04-28T19:54:50.909Z,13.12
2023-04-28T19:58:52.970Z,13.13
2023-04-28T20:02:55.170Z,13.17
2023-04-28T20:06:57.372Z,13.14
2023-04-28T20:10:59.458Z,13.10
2023-04-28T20:15:01.669Z,13.04
2023-04-28T20:19:03.716Z,12.94
2023-04-28T20:23:06.020Z,12.89
2023-04-28T20:27:08.197Z,12.78
2023-04-28T20:31:10.501Z,12.71
2023-04-28T20:35:13.068Z,12.59
2023-04-28T20:39:15.104Z,12.52
2023-04-28T20:43:17.138Z,12.48
2023-04-28T20:47:19.215Z,12.51
2023-04-28T20:51:21.407Z,12.51
2023-04-28T20:55:23.502Z,12.36
2023-04-28T20:59:25.681Z,12.17
2023-04-28T21:03:29.776Z,12.02
2023-04-28T21:07:31.839Z,11.90
2023-04-28T21:11:33.908Z,11.78
2023-04-28T21:15:37.274Z,11.68
2023-04-28T21:19:39.318Z,11.55
2023-04-28T21:23:42.627Z,11.47
2023-04-28T21:27:44.685Z,11.39
2023-04-28T21:31:47.394Z,11.28
2023-04-28T21:35:49.501Z,11.20
2023-04-28T21:39:52.006Z,11.08
2023-04-28T21:43:55.151Z,10.93
2023-04-28T21:47:59.999Z,10.80
2023-04-28T21:52:02.322Z,10.67
2023-04-28T21:56:05.649Z,10.54
2023-04-28T22:00:10.627Z,10.46
2023-04-28T22:04:15.351Z,10.44
2023-04-28T22:08:17.520Z,10.49
2023-04-28T22:12:19.628Z,10.55
2023-04-28T22:16:22.180Z,10.59
2023-04-28T22:20:24.405Z,10.62
2023-04-28T22:24:27.503Z,10.61
2023-04-28T22:28:30.179Z,10.61
2023-04-28T22:32:32.266Z,10.61
2023-04-28T22:36:34.279Z,10.63
2023-04-28T22:40:36.373Z,10.60
2023-04-28T22:44:38.393Z,10.53
2023-04-28T22:48:40.407Z,10.49
2023-04-28T22:52:42.484Z,10.47
2023-04-28T22:56:44.490Z,10.41
2023-04-28T23:00:46.547Z,10.37
2023-04-28T23:04:49.070Z,10.35
2023-04-28T23:08:51.517Z,10.36
2023-04-28T23:12:53.658Z,10.39
2023-04-28T23:16:55.929Z,10.39
2023-04-28T23:20:58.059Z,10.37
2023-04-28T23:25:00.138Z,10.32
2023-04-28T23:29:02.222Z,10.35
2023-04-28T23:33:04.915Z,10.36
2023-04-28T23:37:07.219Z,10.37
2023-04-28T23:41:09.297Z,10.38
2023-04-28T23:45:11.645Z,10.42
2023-04-28T23:49:13.674Z,10.46
2023-04-28T23:53:15.714Z,10.46
2023-04-28T23:57:17.754Z,10.43
